4 Oceans' Dream — SPG3364 — position and weather

sailwx.info

Track history (hours):
 
Tides and Currents Weather Stations Pressure Air Temp Water Temp Dewpoint Dewpoint Depression Visibility Wind Speed Wind Dir Waves Ship Positions

4 Oceans' Dream

Last reported at 2018-Jun-25 10:00 UTC. Time now 2018-Jun-25 10:00 UTC.
Position N 38°03' W 009°18'.

Type: Pleasure craft. MMSI: 261018120.

Date/timePositionNaut miles runAvg speedWind from/ knotsBaromVisibWave heightAir tempDewpointWater temp
2018-Jun-25 10:00N 38°03' W 009°18'2 3.7
2018-Jun-25 09:28N 38°01' W 009°17'2 3.7
2018-Jun-25 09:00N 37°59' W 009°17'2 4.0
2018-Jun-25 08:29N 37°57' W 009°17'2 4.1
2018-Jun-25 07:59N 37°55' W 009°17'2 4.1
2018-Jun-25 07:30N 37°53' W 009°16'2 4.0
2018-Jun-25 07:00N 37°51' W 009°16'2 3.9
2018-Jun-25 06:30N 37°49' W 009°15'2 4.2
2018-Jun-25 06:00N 37°47' W 009°15'51 2.9
2018-Jun-24 12:41N 37°02' W 008°45'1 4.6
2018-Jun-24 12:28N 37°03' W 008°43'2 5.0
2018-Jun-24 11:59N 37°04' W 008°41'2 4.2
2018-Jun-24 11:29N 37°06' W 008°40'  
2018-Jun-17 08:17N 37°06' W 008°40'0 0.0
2018-Jun-17 07:59N 37°06' W 008°40'1 2.4
2018-Jun-17 07:28N 37°06' W 008°39'11 5.5
2018-Jun-17 05:30N 37°01' W 008°27'3 5.8
2018-Jun-17 04:56N 36°59' W 008°24'3 5.8
2018-Jun-17 04:28N 36°58' W 008°21'3 4.6
2018-Jun-17 03:53N 36°56' W 008°18'2 4.6
2018-Jun-17 03:29N 36°55' W 008°16'  
Track history (hours):
 
Tides and Currents Weather Stations Pressure Air Temp Water Temp Dewpoint Dewpoint Depression Visibility Wind Speed Wind Dir Waves Ship Positions

4 Oceans' Dream

Last reported at 2018-Jun-25 10:00 UTC. Time now 2018-Jun-25 10:00 UTC.
Position N 38°03' W 009°18'.

Type: Pleasure craft. MMSI: 261018120.

Date/timePositionNaut miles runAvg speedWind from/ knotsBaromVisibWave heightAir tempDewpointWater temp
2018-Jun-25 10:00N 38°03' W 009°18'2 3.7
2018-Jun-25 09:28N 38°01' W 009°17'2 3.7
2018-Jun-25 09:00N 37°59' W 009°17'2 4.0
2018-Jun-25 08:29N 37°57' W 009°17'2 4.1
2018-Jun-25 07:59N 37°55' W 009°17'2 4.1
2018-Jun-25 07:30N 37°53' W 009°16'2 4.0
2018-Jun-25 07:00N 37°51' W 009°16'2 3.9
2018-Jun-25 06:30N 37°49' W 009°15'2 4.2
2018-Jun-25 06:00N 37°47' W 009°15'51 2.9
2018-Jun-24 12:41N 37°02' W 008°45'1 4.6
2018-Jun-24 12:28N 37°03' W 008°43'2 5.0
2018-Jun-24 11:59N 37°04' W 008°41'2 4.2
2018-Jun-24 11:29N 37°06' W 008°40'  
2018-Jun-17 08:17N 37°06' W 008°40'0 0.0
2018-Jun-17 07:59N 37°06' W 008°40'1 2.4
2018-Jun-17 07:28N 37°06' W 008°39'11 5.5
2018-Jun-17 05:30N 37°01' W 008°27'3 5.8
2018-Jun-17 04:56N 36°59' W 008°24'3 5.8
2018-Jun-17 04:28N 36°58' W 008°21'3 4.6
2018-Jun-17 03:53N 36°56' W 008°18'2 4.6
2018-Jun-17 03:29N 36°55' W 008°16'  

Dump ship's entire track history